Time;durP1;ratioP1;P1;durP2;ratioP2;P2;SDS_P1;SDS_P2;PMS_P1;PMS_P2;Temp;Humidity;BMP_temperature;BMP_pressure;BME280_temperature;BME280_humidity;BME280_pressure;Samples;Min_cycle;Max_cycle;Signal;HPM_P1;HPM_P2
2021/07/08 00:01:45;;;;;;;0.60;0.60;;;;;;;28.32;35.31;98529.52;129035;1096;115286;-86
2021/07/08 00:04:13;;;;;;;0.50;0.50;;;;;;;28.29;34.98;98527.59;129578;1095;22588;-86
2021/07/08 00:06:40;;;;;;;0.40;0.40;;;;;;;28.28;34.91;98528.81;128882;1095;115101;-86
2021/07/08 00:09:07;;;;;;;0.53;0.53;;;;;;;28.25;35.70;98524.89;128750;1095;115923;-86
2021/07/08 00:11:34;;;;;;;0.40;0.40;;;;;;;28.22;35.14;98536.03;128734;1096;115238;-86
2021/07/08 00:14:01;;;;;;;0.50;0.50;;;;;;;28.21;35.15;98542.78;128770;1096;116405;-85
2021/07/08 00:16:27;;;;;;;0.70;0.70;;;;;;;28.18;35.20;98540.85;129564;1095;23325;-86
2021/07/08 00:18:54;;;;;;;0.50;0.50;;;;;;;28.14;35.20;98550.03;128731;1095;116370;-86
2021/07/08 00:21:21;;;;;;;0.50;0.50;;;;;;;28.13;34.73;98545.67;128773;1096;115640;-86
2021/07/08 00:23:48;;;;;;;0.50;0.50;;;;;;;28.11;35.24;98550.09;128811;1096;115988;-86
2021/07/08 00:26:15;;;;;;;0.40;0.40;;;;;;;28.08;35.13;98542.63;128770;1096;116698;-88
2021/07/08 00:28:41;;;;;;;0.60;0.60;;;;;;;28.08;35.28;98543.41;129572;1095;22537;-84
2021/07/08 00:31:07;;;;;;;0.58;0.58;;;;;;;28.06;35.24;98543.05;128746;1096;115344;-84
2021/07/08 00:33:34;;;;;;;0.60;0.60;;;;;;;28.04;35.01;98542.69;128769;1096;115377;-84
2021/07/08 00:36:00;;;;;;;0.50;0.50;;;;;;;28.02;35.00;98550.64;128734;1096;115333;-84
2021/07/08 00:38:26;;;;;;;0.33;0.33;;;;;;;28.00;35.53;98541.97;128729;1096;116098;-84
2021/07/08 00:40:52;;;;;;;0.50;0.50;;;;;;;27.98;35.61;98536.09;128699;1096;115881;-84
2021/07/08 00:43:19;;;;;;;0.60;0.60;;;;;;;27.96;35.84;98541.25;129602;1096;22519;-84
2021/07/08 00:45:45;;;;;;;0.40;0.40;;;;;;;27.93;35.31;98539.31;128744;1096;115396;-84
2021/07/08 00:48:11;;;;;;;0.60;0.60;;;;;;;27.91;35.87;98532.66;128997;1096;116294;-84
2021/07/08 00:50:48;;;;;;;0.40;0.40;;;;;;;27.87;35.90;98543.78;129019;1096;115600;-84
2021/07/08 00:53:16;;;;;;;0.60;0.60;;;;;;;27.83;35.83;98540.30;128716;1096;116773;-85
2021/07/08 00:55:47;;;;;;;0.40;0.40;;;;;;;27.81;36.06;98540.70;129721;1096;22543;-85
2021/07/08 00:58:17;;;;;;;0.58;0.58;;;;;;;27.79;35.85;98540.36;129851;1096;22550;-85
2021/07/08 01:00:43;;;;;;;0.60;0.60;;;;;;;27.77;36.19;98536.44;128936;1096;115603;-84
2021/07/08 01:14:31;;;;;;;0.58;0.58;;;;;;;27.65;36.42;98541.33;129974;1096;22524;-83
2021/07/08 01:18:00;;;;;;;0.60;0.60;;;;;;;27.63;36.68;98543.75;129069;1096;115082;-83
2021/07/08 01:21:28;;;;;;;0.63;0.63;;;;;;;27.61;36.42;98546.14;129077;1096;115223;-83
2021/07/08 01:24:56;;;;;;;0.60;0.60;;;;;;;27.61;36.52;98542.59;129109;1096;115609;-83
2021/07/08 01:31:51;;;;;;;0.55;0.55;;;;;;;27.54;36.63;98543.48;129029;1096;115485;-82
2021/07/08 01:35:18;;;;;;;0.40;0.40;;;;;;;27.52;37.17;98547.88;129989;1096;22667;-81
2021/07/08 01:38:45;;;;;;;0.55;0.55;;;;;;;27.48;36.74;98553.47;129967;1095;22678;-82
2021/07/08 01:42:14;;;;;;;0.58;0.58;;;;;;;27.48;36.74;98542.41;129072;1096;115414;-83
2021/07/08 01:46:00;;;;;;;;;;;;;;;;;;;;;
2021/07/08 01:49:16;;;;;;;0.40;0.40;;;;;;;27.45;37.20;98543.23;129007;1095;115307;-82
2021/07/08 01:52:45;;;;;;;0.40;0.40;;;;;;;27.44;37.10;98541.67;129067;1096;114851;-83
2021/07/08 01:56:11;;;;;;;0.58;0.58;;;;;;;27.41;36.93;98543.28;129105;1096;114795;-83
2021/07/08 01:59:39;;;;;;;0.40;0.40;;;;;;;27.40;37.49;98546.48;129909;1096;22662;-82
2021/07/08 02:03:06;;;;;;;0.40;0.40;;;;;;;27.37;37.38;98547.31;129115;1095;115615;-83
2021/07/08 02:10:06;;;;;;;0.50;0.50;;;;;;;27.28;37.42;98547.84;128701;1096;115615;-83
2021/07/08 02:13:34;;;;;;;0.50;0.50;;;;;;;27.26;37.35;98543.91;128740;1096;115279;-83
2021/07/08 02:17:01;;;;;;;0.30;0.30;;;;;;;27.24;37.42;98532.50;128982;1096;114798;-81
2021/07/08 02:20:40;;;;;;;;;;;;;;;;;;;;;
2021/07/08 02:23:36;;;;;;;;;;;;;;;27.19;37.98;98535.72;128660;1095;115457;-82
2021/07/08 02:27:03;;;;;;;0.40;0.40;;;;;;;27.15;38.19;98536.54;129089;1096;102080;-82
2021/07/08 02:33:57;;;;;;;0.55;0.55;;;;;;;27.10;37.90;98533.45;128959;1095;115081;-83
2021/07/08 02:37:25;;;;;;;0.60;0.60;;;;;;;27.08;38.08;98541.38;128944;1096;115621;-82
2021/07/08 02:41:02;;;;;;;0.40;0.40;;;;;;;27.08;37.77;98546.91;128970;1096;115517;-83
2021/07/08 02:44:40;;;;;;;;;;;;;;;;;;;;;
2021/07/08 02:48:04;;;;;;;0.50;0.50;;;;;;;27.02;37.76;98549.34;128564;1097;116247;-82
2021/07/08 02:51:30;;;;;;;0.50;0.50;;;;;;;27.02;37.74;98556.85;128802;1095;115787;-84
2021/07/08 02:54:59;;;;;;;0.70;0.70;;;;;;;27.00;37.66;98565.57;129029;1096;115244;-83
2021/07/08 02:58:27;;;;;;;0.48;0.48;;;;;;;26.98;37.93;98567.17;128916;1096;115898;-83
2021/07/08 03:01:55;;;;;;;0.60;0.60;;;;;;;26.93;38.42;98571.96;128909;1096;115998;-82
2021/07/08 03:05:24;;;;;;;0.50;0.50;;;;;;;26.88;38.58;98574.38;129266;1096;114402;-81
2021/07/08 03:08:50;;;;;;;0.60;0.60;;;;;;;26.80;38.66;98568.19;129827;1095;22569;-82
2021/07/08 03:12:18;;;;;;;0.40;0.40;;;;;;;26.71;38.83;98573.41;128993;1096;115265;-83
2021/07/08 03:15:47;;;;;;;0.40;0.40;;;;;;;26.62;39.03;98559.32;128946;1096;115511;-82
2021/07/08 03:19:13;;;;;;;0.43;0.43;;;;;;;26.54;39.17;98555.08;129079;1095;115153;-82
2021/07/08 03:22:40;;;;;;;0.50;0.50;;;;;;;26.48;39.29;98553.95;129010;1095;116626;-83
2021/07/08 03:29:38;;;;;;;0.40;0.40;;;;;;;26.42;39.41;98556.36;129951;1096;22638;-82
2021/07/08 03:33:05;;;;;;;0.48;0.48;;;;;;;26.38;39.34;98548.11;128669;1096;114872;-82
2021/07/08 03:36:38;;;;;;;0.40;0.40;;;;;;;26.37;38.86;98557.59;129077;1095;115992;-82
2021/07/08 03:43:42;;;;;;;;;;;;;;;;;;;;;
2021/07/08 03:47:01;;;;;;;0.50;0.50;;;;;;;26.41;38.74;98563.09;128649;1096;115377;-82
2021/07/08 03:54:06;;;;;;;;;;;;;;;;;;;;;
2021/07/08 03:57:25;;;;;;;0.35;0.35;;;;;;;26.46;38.84;98559.89;128592;1096;115878;-82
2021/07/08 04:00:54;;;;;;;0.40;0.40;;;;;;;26.46;38.72;98565.41;129094;1096;115301;-82
2021/07/08 04:04:22;;;;;;;0.40;0.40;;;;;;;26.48;38.64;98568.53;129117;1095;115100;-81
2021/07/08 04:07:49;;;;;;;0.40;0.40;;;;;;;26.51;38.73;98576.00;129064;1095;115818;-81
2021/07/08 04:14:46;;;;;;;0.40;0.40;;;;;;;26.57;39.08;98576.35;129893;1096;22555;-83
2021/07/08 04:18:12;;;;;;;0.30;0.30;;;;;;;26.59;39.41;98574.73;129903;1096;22595;-83
2021/07/08 04:21:38;;;;;;;0.40;0.40;;;;;;;26.58;40.14;98578.69;128771;1096;115048;-83
2021/07/08 04:25:07;;;;;;;0.60;0.60;;;;;;;26.59;40.25;98571.97;129076;1096;115234;-81
2021/07/08 04:28:33;;;;;;;0.40;0.40;;;;;;;26.60;40.69;98575.51;129048;1096;115196;-81
2021/07/08 04:32:00;;;;;;;0.35;0.35;;;;;;;26.60;39.63;98581.81;129013;1096;115555;-80
2021/07/08 04:35:51;;;;;;;0.40;0.40;;;;;;;26.64;39.86;98581.77;129327;1096;114448;-81
2021/07/08 04:38:57;;;;;;;0.40;0.40;;;;;;;26.68;39.56;98582.52;128870;1095;115634;-80
2021/07/08 04:42:24;;;;;;;0.50;0.50;;;;;;;26.72;40.12;98588.78;128803;1096;115664;-80
2021/07/08 04:45:53;;;;;;;0.60;0.60;;;;;;;26.77;40.60;98598.63;129033;1096;115306;-80
2021/07/08 04:49:26;;;;;;;0.58;0.58;;;;;;;26.81;40.07;98589.09;129030;1096;115564;-80
2021/07/08 04:52:54;;;;;;;0.60;0.60;;;;;;;26.88;40.64;98591.77;128806;1096;115393;-82
2021/07/08 04:56:21;;;;;;;0.53;0.53;;;;;;;26.99;40.64;98602.67;129484;1095;114883;-81
2021/07/08 05:06:41;;;;;;;0.58;0.58;;;;;;;27.19;40.87;98593.77;129046;1095;115433;-82
2021/07/08 05:13:35;;;;;;;0.40;0.40;;;;;;;27.34;41.24;98606.98;129105;1096;115260;-81
2021/07/08 05:17:02;;;;;;;0.93;0.88;;;;;;;27.41;41.00;98603.34;129074;1096;115069;-80
2021/07/08 05:20:29;;;;;;;1.00;1.00;;;;;;;27.51;40.96;98607.14;129843;1096;22578;-82
2021/07/08 05:24:07;;;;;;;0.70;0.70;;;;;;;27.58;40.68;98605.06;129933;1096;22625;-86
2021/07/08 05:31:05;;;;;;;0.40;0.40;;;;;;;27.78;40.06;98607.95;128968;1096;115093;-83
2021/07/08 05:34:32;;;;;;;0.50;0.50;;;;;;;27.89;40.01;98608.56;128915;1095;115565;-84
2021/07/08 05:38:03;;;;;;;0.60;0.60;;;;;;;28.01;40.55;98604.42;128836;1096;115633;-83
2021/07/08 05:41:30;;;;;;;0.60;0.60;;;;;;;28.14;40.39;98612.92;129357;1096;22552;-81
2021/07/08 05:44:49;;;;;;;0.50;0.50;;;;;;;28.25;40.38;98615.49;128867;1096;115975;-82
2021/07/08 05:48:19;;;;;;;0.60;0.60;;;;;;;28.36;39.69;98624.41;128884;1096;115599;-84
2021/07/08 05:51:44;;;;;;;0.55;0.55;;;;;;;28.48;39.63;98623.03;128991;1096;115118;-83
2021/07/08 05:58:57;;;;;;;0.60;0.60;;;;;;;28.72;39.43;98616.23;127812;1100;115448;-81
2021/07/08 06:02:24;;;;;;;0.60;0.60;;;;;;;28.85;39.00;98619.95;128106;1098;114995;-81
2021/07/08 06:05:52;;;;;;;0.60;0.60;;;;;;;28.97;39.21;98621.33;127885;1097;115624;-81
2021/07/08 06:09:29;;;;;;;;;;;;;;;;;;;;;
2021/07/08 06:12:47;;;;;;;0.63;0.63;;;;;;;29.24;38.43;98623.14;128618;1096;115205;-82
2021/07/08 06:26:46;;;;;;;0.50;0.50;;;;;;;29.78;37.95;98625.53;129777;1096;22565;-83
2021/07/08 06:30:13;;;;;;;0.68;0.68;;;;;;;29.92;37.83;98624.42;128862;1096;116318;-82
2021/07/08 06:33:39;;;;;;;0.68;0.68;;;;;;;30.04;37.47;98623.72;129032;1096;115493;-82
2021/07/08 06:37:08;;;;;;;0.65;0.65;;;;;;;30.20;37.54;98634.08;128976;1096;115650;-81
2021/07/08 06:40:41;;;;;;;0.68;0.68;;;;;;;30.33;37.31;98630.13;129046;1096;115277;-82
2021/07/08 06:51:04;;;;;;;0.43;0.43;;;;;;;30.60;35.76;98639.39;128972;1096;115326;-82
2021/07/08 07:01:49;;;;;;;0.70;0.70;;;;;;;30.91;35.02;98646.10;128354;1096;115257;-82
2021/07/08 07:05:16;;;;;;;0.90;0.90;;;;;;;31.03;35.00;98648.14;128889;1095;115185;-82
2021/07/08 07:08:42;;;;;;;0.70;0.70;;;;;;;31.17;34.81;98646.96;129888;1096;22545;-81
2021/07/08 07:12:20;;;;;;;;;;;;;;;;;;;;;
2021/07/08 07:19:09;;;;;;;0.63;0.63;;;;;;;31.60;34.09;98647.69;128730;1095;115611;-80
2021/07/08 07:28:58;;;;;;;0.73;0.73;;;;;;;31.97;33.73;98658.09;129020;1095;115351;-81
2021/07/08 07:35:56;;;;;;;0.60;0.60;;;;;;;32.22;32.93;98656.48;129051;1095;115438;-84
2021/07/08 07:46:19;;;;;;;0.85;0.85;;;;;;;32.61;32.65;98662.77;129071;1096;115459;-84
2021/07/08 07:59:01;;;;;;;0.80;0.80;;;;;;;32.92;30.59;98657.28;128983;1096;115593;-85
2021/07/08 08:02:32;;;;;;;0.78;0.78;;;;;;;32.98;31.10;98652.72;129842;1095;22611;-86
2021/07/08 08:16:41;;;;;;;;;;;;;;;;;;;;;
2021/07/08 08:23:30;;;;;;;0.80;0.80;;;;;;;33.39;29.71;98657.15;129544;1096;23015;-84
2021/07/08 08:26:57;;;;;;;0.70;0.70;;;;;;;33.40;30.13;98663.50;129050;1096;115370;-83
2021/07/08 08:30:34;;;;;;;0.80;0.80;;;;;;;33.47;29.08;98661.25;128921;1097;115753;-83
2021/07/08 08:34:02;;;;;;;0.90;0.90;;;;;;;33.58;29.32;98669.22;128877;1097;115518;-82
2021/07/08 08:37:28;;;;;;;0.90;0.90;;;;;;;33.73;29.37;98665.88;128985;1095;115305;-83
2021/07/08 08:40:58;;;;;;;0.68;0.68;;;;;;;33.82;29.58;98663.12;128936;1096;115507;-83
2021/07/08 08:44:41;;;;;;;;;;;;;;;;;;;;;
2021/07/08 08:53:58;;;;;;;0.78;0.78;;;;;;;34.27;28.68;98670.89;129059;1095;114979;-83
2021/07/08 08:57:31;;;;;;;0.98;0.98;;;;;;;34.28;27.94;98669.65;128988;1096;115783;-83
2021/07/08 09:01:07;;;;;;;0.75;0.75;;;;;;;34.36;27.83;98676.49;128821;1096;115099;-86
2021/07/08 09:04:37;;;;;;;0.80;0.80;;;;;;;34.47;28.04;98673.25;128958;1096;115314;-84
2021/07/08 09:08:14;;;;;;;;;;;;;;;;;;;;;
2021/07/08 13:41:23;;;;;;;1.05;1.05;;;;;;;43.72;14.34;98524.65;129845;1095;22553;-81
2021/07/08 13:44:53;;;;;;;1.10;1.10;;;;;;;43.88;14.63;98517.27;129076;1095;115310;-83
2021/07/08 13:48:27;;;;;;;1.10;1.10;;;;;;;44.14;14.74;98515.88;129053;1095;115797;-83
2021/07/08 13:51:54;;;;;;;1.03;1.03;;;;;;;44.34;14.07;98529.58;128607;1096;115707;-83
2021/07/08 14:13:04;;;;;;;;;;;;;;;;;;;;;
2021/07/08 14:19:48;;;;;;;0.98;0.98;;;;;;;45.27;12.84;98516.46;128810;1096;115783;-82
2021/07/08 14:23:15;;;;;;;1.00;1.00;;;;;;;45.69;13.44;98521.66;128892;1095;115516;-83
2021/07/08 14:30:09;;;;;;;1.10;1.10;;;;;;;46.44;12.82;98515.39;129851;1096;22528;-82
2021/07/08 14:33:43;;;;;;;1.20;1.20;;;;;;;46.77;12.10;98507.38;128977;1096;115078;-81
2021/07/08 14:37:11;;;;;;;1.10;1.10;;;;;;;46.84;11.57;98511.63;128736;1095;115651;-82
2021/07/08 14:44:15;;;;;;;;;;;;;;;;;;;;;
2021/07/08 14:47:59;;;;;;;1.13;1.13;;;;;;;46.71;10.52;98503.91;128996;1096;115743;-82
2021/07/08 14:51:25;;;;;;;1.30;1.30;;;;;;;46.82;10.98;98482.93;128968;1096;115964;-82
2021/07/08 14:54:53;;;;;;;1.15;1.15;;;;;;;47.27;11.29;98484.61;128920;1096;115423;-83
2021/07/08 14:58:21;;;;;;;1.25;1.25;;;;;;;47.64;10.91;98481.24;128942;1096;115655;-84
2021/07/08 15:01:49;;;;;;;1.20;1.20;;;;;;;47.75;10.87;98465.13;129064;1096;115613;-84
2021/07/08 15:05:16;;;;;;;1.10;1.10;;;;;;;47.97;10.63;98463.70;129020;1096;114918;-84
2021/07/08 15:08:44;;;;;;;1.35;1.35;;;;;;;47.84;10.26;98456.05;129857;1096;22535;-83
2021/07/08 15:12:11;;;;;;;1.20;1.20;;;;;;;47.91;10.36;98455.30;128994;1095;115448;-83
2021/07/08 15:15:43;;;;;;;1.20;1.20;;;;;;;47.97;10.37;98450.19;128963;1096;115687;-82
2021/07/08 15:19:11;;;;;;;1.20;1.20;;;;;;;48.07;10.18;98442.64;128921;1096;115212;-83
2021/07/08 15:22:46;;;;;;;1.20;1.20;;;;;;;48.65;10.19;98432.42;129077;1096;115175;-83
2021/07/08 15:26:16;;;;;;;1.40;1.40;;;;;;;49.24;8.32;98430.69;128702;1096;114896;-83
2021/07/08 15:29:40;;;;;;;1.25;1.25;;;;;;;49.70;8.58;98419.86;129768;1095;22598;-84
2021/07/08 15:33:13;;;;;;;1.30;1.30;;;;;;;49.75;9.01;98413.15;129900;1095;22534;-84
2021/07/08 15:36:42;;;;;;;1.40;1.40;;;;;;;49.88;8.69;98409.31;128978;1096;114945;-85
2021/07/08 15:40:07;;;;;;;1.30;1.30;;;;;;;50.51;8.57;98422.66;129051;1096;115190;-85
2021/07/08 15:47:15;;;;;;;1.50;1.50;;;;;;;50.63;8.17;98423.73;128948;1096;114727;-86
2021/07/08 15:50:40;;;;;;;1.35;1.35;;;;;;;50.75;8.25;98421.14;129858;1096;22556;-83
2021/07/08 15:54:07;;;;;;;1.50;1.50;;;;;;;50.77;8.13;98422.05;128914;1096;115446;-84
2021/07/08 15:57:34;;;;;;;1.45;1.40;;;;;;;50.59;8.06;98424.14;128977;1096;114807;-85
2021/07/08 16:01:08;;;;;;;1.50;1.50;;;;;;;49.95;7.83;98414.22;129039;1096;114829;-84
2021/07/08 16:04:34;;;;;;;1.60;1.60;;;;;;;49.51;8.58;98413.84;128803;1096;115086;-83
2021/07/08 16:08:00;;;;;;;1.50;1.50;;;;;;;49.52;8.89;98406.77;129054;1095;115444;-83
2021/07/08 16:11:36;;;;;;;1.50;1.50;;;;;;;49.63;9.03;98418.55;129166;1096;114793;-84
2021/07/08 16:15:07;;;;;;;1.40;1.40;;;;;;;49.90;8.59;98415.20;128857;1096;116720;-84
2021/07/08 16:22:13;;;;;;;1.38;1.38;;;;;;;49.86;9.24;98417.71;128696;1095;115085;-84
2021/07/08 16:25:41;;;;;;;1.40;1.40;;;;;;;49.17;8.85;98415.09;128949;1096;115563;-84
2021/07/08 16:32:37;;;;;;;1.23;1.23;;;;;;;47.41;10.33;98406.19;129900;1095;22539;-84
2021/07/08 16:36:04;;;;;;;1.30;1.30;;;;;;;46.82;11.14;98408.83;129909;1095;22557;-83
2021/07/08 16:39:33;;;;;;;1.18;1.18;;;;;;;45.99;11.67;98416.01;129016;1095;115035;-83
2021/07/08 16:46:27;;;;;;;1.00;1.00;;;;;;;44.31;12.96;98408.58;129071;1095;115151;-81
2021/07/08 16:49:55;;;;;;;1.00;1.00;;;;;;;43.75;13.39;98406.53;129005;1096;115721;-80
2021/07/08 16:53:28;;;;;;;1.00;1.00;;;;;;;43.06;14.34;98402.94;129369;1096;114857;-80
2021/07/08 17:07:26;;;;;;;;;;;;;;;;;;;;;
2021/07/08 17:17:35;;;;;;;0.85;0.85;;;;;;;40.21;17.80;98411.34;129801;1096;22515;-83
2021/07/08 17:26:12;;;;;;;0.78;0.78;;;;;;;39.65;18.73;98414.73;128954;1096;115565;-89
2021/07/08 17:28:39;;;;;;;0.70;0.70;;;;;;;39.50;18.85;98414.95;129543;1095;22500;-88
2021/07/08 17:31:06;;;;;;;0.80;0.80;;;;;;;39.38;19.12;98416.18;128748;1094;114776;-88
2021/07/08 17:33:37;;;;;;;0.88;0.88;;;;;;;39.23;19.14;98412.77;128791;1095;115419;-88
2021/07/08 17:36:04;;;;;;;0.73;0.73;;;;;;;39.01;19.50;98416.96;128757;1096;115895;-88
2021/07/08 17:38:30;;;;;;;0.65;0.65;;;;;;;38.86;19.59;98415.58;128756;1096;115163;-88
2021/07/08 17:40:57;;;;;;;0.83;0.83;;;;;;;38.72;20.10;98415.21;128687;1096;116032;-88
2021/07/08 17:43:24;;;;;;;0.80;0.80;;;;;;;38.56;20.24;98418.67;129554;1096;22580;-88
2021/07/08 17:45:50;;;;;;;0.80;0.80;;;;;;;38.40;20.27;98422.89;128612;1096;115067;-88
2021/07/08 17:48:16;;;;;;;0.70;0.70;;;;;;;38.24;20.15;98417.83;128727;1096;115209;-88
2021/07/08 17:50:43;;;;;;;0.73;0.73;;;;;;;38.10;20.75;98415.91;129064;1096;115422;-88
2021/07/08 17:53:09;;;;;;;0.70;0.70;;;;;;;37.96;20.47;98414.73;128772;1095;115133;-88
2021/07/08 17:55:36;;;;;;;0.78;0.78;;;;;;;37.80;20.85;98416.08;129614;1096;22546;-88
2021/07/08 17:58:03;;;;;;;0.75;0.75;;;;;;;37.61;21.35;98417.63;128734;1096;115515;-88
2021/07/08 18:00:29;;;;;;;0.70;0.70;;;;;;;37.45;21.00;98414.13;128728;1097;115584;-88
2021/07/08 18:02:55;;;;;;;1.00;1.00;;;;;;;37.31;22.00;98420.56;128757;1096;115453;-88
2021/07/08 18:05:21;;;;;;;0.80;0.80;;;;;;;37.15;21.71;98421.88;128721;1096;116425;-88
2021/07/08 18:07:50;;;;;;;0.80;0.80;;;;;;;37.02;21.83;98415.80;128701;1096;115570;-88
2021/07/08 18:10:17;;;;;;;0.93;0.93;;;;;;;36.87;22.10;98418.64;129594;1096;22566;-88
2021/07/08 18:12:43;;;;;;;0.80;0.80;;;;;;;36.72;22.83;98429.12;128725;1096;116043;-88
2021/07/08 18:15:16;;;;;;;0.80;0.80;;;;;;;36.57;21.94;98417.91;128743;1096;116141;-88
2021/07/08 18:17:45;;;;;;;0.70;0.70;;;;;;;36.44;22.72;98418.19;128682;1097;115800;-88
2021/07/08 18:20:14;;;;;;;0.80;0.80;;;;;;;36.31;22.84;98414.88;128752;1095;115509;-88
2021/07/08 18:22:40;;;;;;;0.90;0.90;;;;;;;36.19;22.93;98402.70;129550;1096;22552;-88
2021/07/08 18:25:11;;;;;;;0.80;0.80;;;;;;;36.08;23.07;98417.30;128724;1096;115468;-88
2021/07/08 18:27:41;;;;;;;0.70;0.70;;;;;;;35.94;23.11;98415.22;128726;1096;115626;-88
2021/07/08 18:30:09;;;;;;;;;;;;;;;35.82;23.46;98416.27;128733;1096;115605;-88
2021/07/08 18:32:35;;;;;;;0.80;0.80;;;;;;;35.70;23.33;98420.10;128764;1096;101821;-88
2021/07/08 18:35:02;;;;;;;0.90;0.90;;;;;;;35.59;23.52;98424.21;128647;1096;116975;-88
2021/07/08 18:37:30;;;;;;;0.90;0.90;;;;;;;35.46;23.76;98423.67;129471;1096;23009;-87
2021/07/08 18:39:56;;;;;;;0.70;0.70;;;;;;;35.37;23.92;98418.11;128591;1096;114880;-87
2021/07/08 18:42:22;;;;;;;0.80;0.80;;;;;;;35.24;24.00;98423.95;128638;1095;115057;-88
2021/07/08 18:44:49;;;;;;;0.70;0.70;;;;;;;35.14;24.27;98417.64;128609;1097;115494;-88
2021/07/08 18:47:16;;;;;;;0.80;0.80;;;;;;;35.04;24.37;98413.33;128610;1096;115610;-88
2021/07/08 18:49:43;;;;;;;0.60;0.60;;;;;;;34.93;24.25;98419.41;129485;1095;22535;-88
2021/07/08 18:52:10;;;;;;;0.78;0.78;;;;;;;34.85;24.80;98425.83;129062;1097;114743;-88
2021/07/08 18:54:36;;;;;;;0.88;0.88;;;;;;;34.73;24.72;98427.59;128660;1095;115900;-88
2021/07/08 18:57:02;;;;;;;0.70;0.70;;;;;;;34.63;24.86;98432.45;128551;1097;115167;-88
2021/07/08 18:59:29;;;;;;;0.60;0.60;;;;;;;34.52;25.26;98428.60;128633;1096;115625;-88
2021/07/08 19:01:55;;;;;;;0.80;0.80;;;;;;;34.42;25.34;98434.17;128605;1096;116089;-88
2021/07/08 19:04:21;;;;;;;0.68;0.68;;;;;;;34.33;25.52;98433.42;129499;1096;23316;-88
2021/07/08 19:06:49;;;;;;;0.68;0.68;;;;;;;34.26;25.21;98437.31;128710;1096;115769;-88
2021/07/08 19:09:15;;;;;;;0.80;0.80;;;;;;;34.20;25.66;98442.00;128612;1095;115462;-88
2021/07/08 19:11:43;;;;;;;0.60;0.60;;;;;;;34.13;25.64;98439.52;128621;1096;115637;-88
2021/07/08 19:14:09;;;;;;;0.60;0.60;;;;;;;34.04;25.74;98434.72;128628;1095;115562;-88
2021/07/08 19:16:36;;;;;;;0.70;0.70;;;;;;;33.98;25.72;98447.75;129467;1096;22558;-88
2021/07/08 19:19:02;;;;;;;0.75;0.75;;;;;;;33.90;25.88;98444.45;128589;1097;115316;-88
2021/07/08 19:21:29;;;;;;;0.90;0.90;;;;;;;33.84;26.31;98440.75;128606;1096;115765;-88
2021/07/08 19:23:57;;;;;;;0.70;0.70;;;;;;;33.79;26.57;98440.58;128643;1096;115586;-88
2021/07/08 19:26:26;;;;;;;0.78;0.78;;;;;;;33.73;26.34;98436.86;128712;1095;116023;-88
2021/07/08 19:28:52;;;;;;;0.70;0.70;;;;;;;33.66;26.37;98433.13;128675;1096;115517;-88
2021/07/08 19:31:18;;;;;;;0.65;0.65;;;;;;;33.57;26.48;98435.92;129671;1096;22583;-89
2021/07/08 19:33:44;;;;;;;0.60;0.60;;;;;;;33.47;27.03;98435.11;128597;1096;114962;-88
2021/07/08 19:36:10;;;;;;;0.80;0.80;;;;;;;33.40;26.79;98437.39;128598;1096;115483;-88
2021/07/08 19:38:36;;;;;;;0.60;0.60;;;;;;;33.34;27.39;98436.47;128627;1095;115451;-88
2021/07/08 19:41:04;;;;;;;0.70;0.70;;;;;;;33.25;27.21;98442.81;128630;1096;115555;-88
2021/07/08 19:43:30;;;;;;;0.80;0.80;;;;;;;33.19;27.64;98434.25;129404;1097;22572;-88
2021/07/08 19:45:57;;;;;;;0.80;0.80;;;;;;;33.12;27.45;98428.95;128659;1096;115425;-88
2021/07/08 19:48:24;;;;;;;0.73;0.73;;;;;;;33.07;27.42;98431.59;128602;1096;116411;-88
2021/07/08 19:53:35;;;;;;;0.70;0.70;;;;;;;32.93;28.20;98432.92;128695;1096;115424;-88
2021/07/08 19:56:02;;;;;;;0.68;0.68;;;;;;;32.89;27.92;98437.83;128603;1096;115842;-88
2021/07/08 19:58:31;;;;;;;0.70;0.70;;;;;;;32.84;28.40;98436.42;129492;1096;22549;-88
2021/07/08 20:00:58;;;;;;;0.93;0.90;;;;;;;32.80;28.46;98435.79;128678;1096;115300;-88
2021/07/08 20:03:24;;;;;;;0.70;0.70;;;;;;;32.75;28.55;98433.61;128720;1096;115682;-88
2021/07/08 20:05:50;;;;;;;0.68;0.68;;;;;;;32.68;28.74;98433.88;128727;1095;115400;-88
2021/07/08 20:08:16;;;;;;;0.63;0.63;;;;;;;32.64;28.41;98438.81;128640;1096;115910;-88
2021/07/08 20:10:42;;;;;;;0.63;0.63;;;;;;;32.58;28.63;98433.06;129451;1096;22592;-88
2021/07/08 20:13:12;;;;;;;0.80;0.80;;;;;;;32.53;28.96;98428.06;128613;1096;114902;-88
2021/07/08 20:15:47;;;;;;;0.80;0.80;;;;;;;32.49;28.81;98428.20;128633;1096;116150;-88
2021/07/08 20:18:14;;;;;;;0.60;0.60;;;;;;;32.43;29.19;98426.48;128686;1096;115427;-88
2021/07/08 20:20:40;;;;;;;0.80;0.80;;;;;;;32.36;29.26;98433.06;128652;1096;115714;-89
2021/07/08 20:23:34;;;;;;;0.63;0.63;;;;;;;32.30;29.16;98428.52;128715;1096;115365;-89
2021/07/08 20:26:44;;;;;;;0.60;0.60;;;;;;;32.25;29.42;98430.66;128717;1096;115558;-90
2021/07/08 20:29:10;;;;;;;0.60;0.60;;;;;;;32.20;29.68;98434.04;128782;1096;115749;-89
2021/07/08 20:31:37;;;;;;;0.60;0.60;;;;;;;32.16;29.57;98429.83;129485;1096;22578;-88
2021/07/08 20:34:04;;;;;;;0.60;0.60;;;;;;;32.14;29.57;98426.70;128684;1097;115673;-88
2021/07/08 20:36:38;;;;;;;0.60;0.60;;;;;;;32.10;29.52;98423.28;128717;1097;115746;-89
2021/07/08 20:39:40;;;;;;;0.60;0.60;;;;;;;32.06;29.90;98419.84;128649;1096;115849;-89
2021/07/08 20:42:08;;;;;;;0.70;0.70;;;;;;;32.01;29.79;98412.86;128660;1096;115037;-89
2021/07/08 20:44:54;;;;;;;0.60;0.60;;;;;;;31.96;30.00;98410.66;128741;1096;115510;-89
2021/07/08 20:47:21;;;;;;;0.60;0.60;;;;;;;31.91;29.80;98405.65;128742;1096;115761;-88
2021/07/08 20:49:48;;;;;;;0.70;0.70;;;;;;;31.88;30.13;98410.13;128739;1096;115056;-88
2021/07/08 20:52:16;;;;;;;0.78;0.78;;;;;;;31.84;30.09;98415.02;129505;1095;22576;-88
2021/07/08 20:54:42;;;;;;;0.68;0.68;;;;;;;31.82;29.99;98417.47;128717;1096;115185;-89
2021/07/08 20:57:08;;;;;;;0.53;0.53;;;;;;;31.78;30.42;98409.23;128661;1097;116037;-89
2021/07/08 20:59:37;;;;;;;0.60;0.60;;;;;;;31.75;30.35;98415.73;128643;1096;115759;-89
2021/07/08 21:02:03;;;;;;;0.75;0.75;;;;;;;31.72;30.49;98416.63;128590;1096;115881;-88
2021/07/08 21:04:29;;;;;;;0.60;0.60;;;;;;;31.69;30.44;98419.53;129471;1096;22553;-88
2021/07/08 21:06:55;;;;;;;0.60;0.60;;;;;;;31.68;30.39;98420.77;128683;1096;115541;-88
2021/07/08 21:09:22;;;;;;;0.60;0.60;;;;;;;31.67;30.20;98424.77;128676;1096;116595;-88
2021/07/08 21:11:48;;;;;;;0.70;0.70;;;;;;;31.65;30.60;98425.22;128680;1097;117346;-88
2021/07/08 21:14:15;;;;;;;0.55;0.55;;;;;;;31.61;30.41;98427.35;128644;1097;116094;-88
2021/07/08 21:16:42;;;;;;;0.55;0.55;;;;;;;31.60;30.74;98428.59;129554;1096;22540;-88
2021/07/08 21:19:08;;;;;;;0.60;0.60;;;;;;;31.57;30.56;98415.56;128679;1096;115108;-89
2021/07/08 21:21:35;;;;;;;0.70;0.70;;;;;;;31.53;30.71;98426.81;128652;1097;115726;-88
2021/07/08 21:24:01;;;;;;;0.70;0.70;;;;;;;31.50;30.69;98424.16;128645;1097;116050;-88
2021/07/08 21:26:28;;;;;;;0.60;0.60;;;;;;;31.48;31.13;98415.46;128697;1096;115999;-89
2021/07/08 21:28:54;;;;;;;0.60;0.60;;;;;;;31.42;30.92;98420.05;128694;1096;115402;-88
2021/07/08 21:31:20;;;;;;;0.70;0.70;;;;;;;31.39;30.86;98424.50;129503;1097;23317;-88
2021/07/08 21:33:46;;;;;;;0.68;0.68;;;;;;;31.35;31.00;98417.51;128750;1096;114977;-88
2021/07/08 21:36:12;;;;;;;0.68;0.68;;;;;;;31.30;31.08;98416.08;128644;1097;115778;-88
2021/07/08 21:38:38;;;;;;;0.68;0.68;;;;;;;31.26;31.57;98421.73;128671;1096;115142;-89
2021/07/08 21:41:11;;;;;;;0.65;0.65;;;;;;;31.24;31.49;98423.39;128692;1096;115584;-89
2021/07/08 21:43:37;;;;;;;0.60;0.60;;;;;;;31.20;31.53;98423.50;129521;1096;22517;-88
2021/07/08 21:46:03;;;;;;;0.70;0.70;;;;;;;31.17;32.10;98418.08;128655;1096;114816;-89
2021/07/08 21:48:29;;;;;;;0.70;0.70;;;;;;;31.12;32.11;98419.39;128676;1095;115516;-88
2021/07/08 21:50:58;;;;;;;0.70;0.70;;;;;;;31.08;32.30;98412.40;128670;1096;116310;-88
2021/07/08 21:53:24;;;;;;;0.63;0.63;;;;;;;31.02;32.38;98415.75;128671;1096;116623;-88
2021/07/08 21:55:51;;;;;;;0.75;0.75;;;;;;;30.95;32.63;98413.19;128691;1096;115390;-88